sensor_id;sensor_type;location;lat;lon;timestamp;P1;durP1;ratioP1;P2;durP2;ratioP2
48596;SDS011;34382;43.160;24.148;2022-08-25T07:15:37;19.98;;;6.82;;
48596;SDS011;34382;43.160;24.148;2022-08-25T07:17:09;20.60;;;7.25;;
48596;SDS011;34382;43.160;24.148;2022-08-25T07:18:43;13.88;;;7.03;;
48596;SDS011;34382;43.160;24.148;2022-08-25T07:20:16;18.48;;;6.43;;
48596;SDS011;34382;43.160;24.148;2022-08-25T07:21:51;17.83;;;6.65;;
48596;SDS011;34382;43.160;24.148;2022-08-25T07:23:23;17.30;;;6.72;;
48596;SDS011;34382;43.160;24.148;2022-08-25T07:24:56;17.48;;;6.60;;
48596;SDS011;34382;43.160;24.148;2022-08-25T07:26:30;15.15;;;6.55;;
48596;SDS011;34382;43.160;24.148;2022-08-25T07:28:09;15.73;;;6.45;;
48596;SDS011;34382;43.160;24.148;2022-08-25T07:29:42;20.88;;;9.45;;
48596;SDS011;34382;43.160;24.148;2022-08-25T07:31:16;21.58;;;6.78;;
48596;SDS011;34382;43.160;24.148;2022-08-25T07:32:49;16.55;;;6.35;;
48596;SDS011;34382;43.160;24.148;2022-08-25T07:34:25;16.00;;;6.65;;
48596;SDS011;34382;43.160;24.148;2022-08-25T07:36:23;14.10;;;6.60;;
48596;SDS011;34382;43.160;24.148;2022-08-25T07:39:29;13.30;;;6.32;;
48596;SDS011;34382;43.160;24.148;2022-08-25T07:42:34;16.20;;;6.65;;
48596;SDS011;34382;43.160;24.148;2022-08-25T07:44:08;15.93;;;6.70;;
48596;SDS011;34382;43.160;24.148;2022-08-25T07:45:42;18.17;;;7.85;;
48596;SDS011;34382;43.160;24.148;2022-08-25T07:47:19;23.30;;;8.75;;
48596;SDS011;34382;43.160;24.148;2022-08-25T07:48:53;17.70;;;6.55;;
48596;SDS011;34382;43.160;24.148;2022-08-25T07:50:26;17.23;;;7.22;;
48596;SDS011;34382;43.160;24.148;2022-08-25T07:52:00;24.35;;;8.40;;
48596;SDS011;34382;43.160;24.148;2022-08-25T07:53:36;18.05;;;6.75;;
48596;SDS011;34382;43.160;24.148;2022-08-25T07:55:09;17.58;;;6.25;;
48596;SDS011;34382;43.160;24.148;2022-08-25T07:56:48;15.73;;;5.80;;
48596;SDS011;34382;43.160;24.148;2022-08-25T07:58:20;20.80;;;7.53;;
48596;SDS011;34382;43.160;24.148;2022-08-25T07:59:52;22.17;;;7.22;;
48596;SDS011;34382;43.160;24.148;2022-08-25T08:01:25;15.75;;;6.72;;
48596;SDS011;34382;43.160;24.148;2022-08-25T08:02:57;22.42;;;6.47;;
48596;SDS011;34382;43.160;24.148;2022-08-25T08:04:34;16.77;;;6.28;;
48596;SDS011;34382;43.160;24.148;2022-08-25T08:06:08;18.05;;;5.80;;
48596;SDS011;34382;43.160;24.148;2022-08-25T08:07:41;17.52;;;5.90;;
48596;SDS011;34382;43.160;24.148;2022-08-25T08:09:14;17.63;;;5.57;;
48596;SDS011;34382;43.160;24.148;2022-08-25T08:10:47;19.05;;;6.30;;
48596;SDS011;34382;43.160;24.148;2022-08-25T08:12:35;12.70;;;5.35;;
48596;SDS011;34382;43.160;24.148;2022-08-25T08:14:08;18.52;;;5.60;;
48596;SDS011;34382;43.160;24.148;2022-08-25T08:15:41;21.33;;;6.43;;
48596;SDS011;34382;43.160;24.148;2022-08-25T08:17:14;25.58;;;7.72;;
48596;SDS011;34382;43.160;24.148;2022-08-25T08:18:47;14.93;;;5.78;;
48596;SDS011;34382;43.160;24.148;2022-08-25T08:20:19;18.05;;;6.30;;
48596;SDS011;34382;43.160;24.148;2022-08-25T08:21:53;21.77;;;6.38;;
48596;SDS011;34382;43.160;24.148;2022-08-25T08:23:27;15.85;;;6.13;;
48596;SDS011;34382;43.160;24.148;2022-08-25T08:26:33;20.38;;;7.60;;
48596;SDS011;34382;43.160;24.148;2022-08-25T08:28:25;19.63;;;6.85;;
48596;SDS011;34382;43.160;24.148;2022-08-25T08:29:58;20.25;;;6.40;;
48596;SDS011;34382;43.160;24.148;2022-08-25T08:31:31;20.90;;;5.95;;
48596;SDS011;34382;43.160;24.148;2022-08-25T08:33:06;19.70;;;6.20;;
48596;SDS011;34382;43.160;24.148;2022-08-25T08:34:42;24.63;;;7.40;;
48596;SDS011;34382;43.160;24.148;2022-08-25T08:36:14;16.67;;;5.90;;
48596;SDS011;34382;43.160;24.148;2022-08-25T08:37:47;18.73;;;6.03;;
48596;SDS011;34382;43.160;24.148;2022-08-25T08:39:25;22.73;;;6.50;;
48596;SDS011;34382;43.160;24.148;2022-08-25T08:43:33;22.08;;;6.05;;
48596;SDS011;34382;43.160;24.148;2022-08-25T08:45:19;21.98;;;5.30;;
48596;SDS011;34382;43.160;24.148;2022-08-25T08:50:31;23.08;;;5.88;;
48596;SDS011;34382;43.160;24.148;2022-08-25T08:52:08;21.10;;;6.28;;
48596;SDS011;34382;43.160;24.148;2022-08-25T08:55:48;25.27;;;6.43;;
48596;SDS011;34382;43.160;24.148;2022-08-25T08:57:26;28.45;;;5.95;;
48596;SDS011;34382;43.160;24.148;2022-08-25T08:59:05;21.55;;;6.28;;
48596;SDS011;34382;43.160;24.148;2022-08-25T09:00:43;26.23;;;6.33;;
48596;SDS011;34382;43.160;24.148;2022-08-25T09:02:28;18.42;;;6.15;;
48596;SDS011;34382;43.160;24.148;2022-08-25T09:04:26;22.67;;;5.60;;
48596;SDS011;34382;43.160;24.148;2022-08-25T09:06:08;21.83;;;6.18;;
48596;SDS011;34382;43.160;24.148;2022-08-25T09:07:56;21.73;;;5.82;;
48596;SDS011;34382;43.160;24.148;2022-08-25T09:09:32;20.67;;;5.78;;
48596;SDS011;34382;43.160;24.148;2022-08-25T09:12:57;22.10;;;5.95;;
48596;SDS011;34382;43.160;24.148;2022-08-25T09:31:08;19.63;;;5.50;;
48596;SDS011;34382;43.160;24.148;2022-08-25T09:32:38;16.77;;;4.78;;
48596;SDS011;34382;43.160;24.148;2022-08-25T09:34:23;19.05;;;5.07;;
48596;SDS011;34382;43.160;24.148;2022-08-25T09:36:03;20.00;;;5.30;;
48596;SDS011;34382;43.160;24.148;2022-08-25T09:37:39;19.65;;;5.53;;
48596;SDS011;34382;43.160;24.148;2022-08-25T09:39:12;16.80;;;5.53;;
48596;SDS011;34382;43.160;24.148;2022-08-25T09:40:48;25.27;;;5.78;;
48596;SDS011;34382;43.160;24.148;2022-08-25T09:42:27;16.02;;;4.22;;
48596;SDS011;34382;43.160;24.148;2022-08-25T09:44:24;15.55;;;4.65;;
48596;SDS011;34382;43.160;24.148;2022-08-25T09:47:34;14.40;;;4.78;;
48596;SDS011;34382;43.160;24.148;2022-08-25T09:49:14;36.28;;;9.32;;
48596;SDS011;34382;43.160;24.148;2022-08-25T09:54:38;22.73;;;6.35;;
48596;SDS011;34382;43.160;24.148;2022-08-25T09:55:59;18.65;;;5.40;;
48596;SDS011;34382;43.160;24.148;2022-08-25T09:57:36;16.38;;;4.88;;
48596;SDS011;34382;43.160;24.148;2022-08-25T09:59:30;12.48;;;4.43;;
48596;SDS011;34382;43.160;24.148;2022-08-25T10:01:17;20.75;;;4.70;;
48596;SDS011;34382;43.160;24.148;2022-08-25T10:03:04;14.80;;;4.57;;
48596;SDS011;34382;43.160;24.148;2022-08-25T10:04:42;18.30;;;5.18;;
48596;SDS011;34382;43.160;24.148;2022-08-25T10:06:16;13.93;;;4.78;;
48596;SDS011;34382;43.160;24.148;2022-08-25T10:07:55;15.07;;;4.40;;
48596;SDS011;34382;43.160;24.148;2022-08-25T10:09:39;14.68;;;4.45;;
48596;SDS011;34382;43.160;24.148;2022-08-25T10:11:14;17.38;;;4.40;;
48596;SDS011;34382;43.160;24.148;2022-08-25T10:13:11;16.67;;;4.70;;
48596;SDS011;34382;43.160;24.148;2022-08-25T10:14:53;14.43;;;4.22;;
48596;SDS011;34382;43.160;24.148;2022-08-25T10:16:28;16.67;;;4.15;;
48596;SDS011;34382;43.160;24.148;2022-08-25T10:18:27;15.32;;;4.80;;
48596;SDS011;34382;43.160;24.148;2022-08-25T10:21:41;16.30;;;4.60;;
48596;SDS011;34382;43.160;24.148;2022-08-25T10:23:15;13.55;;;4.55;;
48596;SDS011;34382;43.160;24.148;2022-08-25T10:24:47;15.38;;;5.43;;
48596;SDS011;34382;43.160;24.148;2022-08-25T10:26:27;18.02;;;4.60;;
48596;SDS011;34382;43.160;24.148;2022-08-25T10:28:18;16.40;;;4.75;;
48596;SDS011;34382;43.160;24.148;2022-08-25T10:30:08;15.45;;;4.93;;
48596;SDS011;34382;43.160;24.148;2022-08-25T10:31:53;16.25;;;4.85;;
48596;SDS011;34382;43.160;24.148;2022-08-25T10:35:11;17.25;;;4.53;;
48596;SDS011;34382;43.160;24.148;2022-08-25T10:38:56;14.43;;;4.53;;
48596;SDS011;34382;43.160;24.148;2022-08-25T10:40:35;14.75;;;5.00;;
48596;SDS011;34382;43.160;24.148;2022-08-25T10:50:12;13.15;;;4.32;;
48596;SDS011;34382;43.160;24.148;2022-08-25T10:56:50;14.05;;;4.47;;
48596;SDS011;34382;43.160;24.148;2022-08-25T11:00:27;12.30;;;4.50;;
48596;SDS011;34382;43.160;24.148;2022-08-25T11:10:02;17.27;;;4.78;;
48596;SDS011;34382;43.160;24.148;2022-08-25T11:12:00;15.07;;;4.85;;
48596;SDS011;34382;43.160;24.148;2022-08-25T11:15:21;14.82;;;4.00;;
48596;SDS011;34382;43.160;24.148;2022-08-25T11:17:00;17.35;;;4.38;;
48596;SDS011;34382;43.160;24.148;2022-08-25T11:18:37;17.38;;;4.13;;
48596;SDS011;34382;43.160;24.148;2022-08-25T11:20:37;16.15;;;3.72;;
48596;SDS011;34382;43.160;24.148;2022-08-25T11:22:38;15.38;;;4.40;;
48596;SDS011;34382;43.160;24.148;2022-08-25T11:26:10;16.73;;;4.70;;
48596;SDS011;34382;43.160;24.148;2022-08-25T11:27:52;15.98;;;4.20;;
48596;SDS011;34382;43.160;24.148;2022-08-25T11:29:30;13.38;;;4.30;;
48596;SDS011;34382;43.160;24.148;2022-08-25T11:31:09;17.42;;;4.40;;
48596;SDS011;34382;43.160;24.148;2022-08-25T11:32:44;18.00;;;4.40;;
48596;SDS011;34382;43.160;24.148;2022-08-25T11:34:19;15.73;;;3.88;;
48596;SDS011;34382;43.160;24.148;2022-08-25T11:35:53;21.20;;;4.22;;
48596;SDS011;34382;43.160;24.148;2022-08-25T11:37:30;12.95;;;3.60;;
48596;SDS011;34382;43.160;24.148;2022-08-25T11:39:13;14.25;;;4.00;;
48596;SDS011;34382;43.160;24.148;2022-08-25T11:41:09;14.75;;;3.80;;
48596;SDS011;34382;43.160;24.148;2022-08-25T11:48:03;15.43;;;4.05;;
48596;SDS011;34382;43.160;24.148;2022-08-25T11:49:58;18.80;;;4.70;;
48596;SDS011;34382;43.160;24.148;2022-08-25T11:51:40;22.35;;;4.22;;
48596;SDS011;34382;43.160;24.148;2022-08-25T11:53:23;14.43;;;3.95;;
48596;SDS011;34382;43.160;24.148;2022-08-25T11:57:04;16.83;;;4.10;;
48596;SDS011;34382;43.160;24.148;2022-08-25T11:58:48;22.13;;;3.85;;
48596;SDS011;34382;43.160;24.148;2022-08-25T12:00:35;15.95;;;3.72;;
48596;SDS011;34382;43.160;24.148;2022-08-25T12:02:26;16.00;;;3.90;;
48596;SDS011;34382;43.160;24.148;2022-08-25T12:04:11;17.60;;;3.90;;
48596;SDS011;34382;43.160;24.148;2022-08-25T12:05:51;13.75;;;3.88;;
48596;SDS011;34382;43.160;24.148;2022-08-25T12:13:25;17.73;;;3.67;;
48596;SDS011;34382;43.160;24.148;2022-08-25T12:15:23;15.02;;;3.70;;
48596;SDS011;34382;43.160;24.148;2022-08-25T12:20:03;13.80;;;3.95;;
48596;SDS011;34382;43.160;24.148;2022-08-25T12:21:36;9.65;;;3.30;;
48596;SDS011;34382;43.160;24.148;2022-08-25T12:23:08;17.40;;;3.97;;
48596;SDS011;34382;43.160;24.148;2022-08-25T12:29:47;11.30;;;3.65;;
48596;SDS011;34382;43.160;24.148;2022-08-25T12:36:31;15.07;;;4.05;;
48596;SDS011;34382;43.160;24.148;2022-08-25T12:40:21;16.23;;;3.53;;
48596;SDS011;34382;43.160;24.148;2022-08-25T12:42:17;16.58;;;3.47;;
48596;SDS011;34382;43.160;24.148;2022-08-25T12:45:06;12.23;;;3.35;;
48596;SDS011;34382;43.160;24.148;2022-08-25T12:52:06;18.30;;;4.53;;
48596;SDS011;34382;43.160;24.148;2022-08-25T12:54:00;14.65;;;4.13;;
48596;SDS011;34382;43.160;24.148;2022-08-25T12:55:58;19.13;;;3.72;;
48596;SDS011;34382;43.160;24.148;2022-08-25T13:01:11;17.65;;;4.53;;
48596;SDS011;34382;43.160;24.148;2022-08-25T13:06:56;18.52;;;3.85;;
48596;SDS011;34382;43.160;24.148;2022-08-25T13:08:47;13.32;;;4.03;;
48596;SDS011;34382;43.160;24.148;2022-08-25T13:10:45;12.23;;;4.05;;
48596;SDS011;34382;43.160;24.148;2022-08-25T13:12:25;16.30;;;3.58;;
48596;SDS011;34382;43.160;24.148;2022-08-25T13:14:26;18.92;;;4.30;;
48596;SDS011;34382;43.160;24.148;2022-08-25T13:16:14;15.05;;;3.35;;
48596;SDS011;34382;43.160;24.148;2022-08-25T13:19:54;14.68;;;3.38;;
48596;SDS011;34382;43.160;24.148;2022-08-25T13:21:42;10.85;;;3.50;;
48596;SDS011;34382;43.160;24.148;2022-08-25T13:23:24;15.10;;;4.57;;
48596;SDS011;34382;43.160;24.148;2022-08-25T13:24:59;17.27;;;3.72;;
48596;SDS011;34382;43.160;24.148;2022-08-25T13:26:32;13.60;;;3.90;;
48596;SDS011;34382;43.160;24.148;2022-08-25T13:28:31;10.30;;;3.45;;
48596;SDS011;34382;43.160;24.148;2022-08-25T13:30:07;16.05;;;3.95;;
48596;SDS011;34382;43.160;24.148;2022-08-25T13:31:56;14.23;;;3.67;;
48596;SDS011;34382;43.160;24.148;2022-08-25T13:33:31;15.40;;;3.58;;
48596;SDS011;34382;43.160;24.148;2022-08-25T13:35:10;13.05;;;3.78;;
48596;SDS011;34382;43.160;24.148;2022-08-25T13:37:09;17.08;;;3.70;;
48596;SDS011;34382;43.160;24.148;2022-08-25T13:39:18;17.50;;;4.90;;
48596;SDS011;34382;43.160;24.148;2022-08-25T13:41:23;13.50;;;3.63;;
48596;SDS011;34382;43.160;24.148;2022-08-25T13:43:03;15.38;;;4.57;;
48596;SDS011;34382;43.160;24.148;2022-08-25T13:44:36;16.90;;;3.40;;
48596;SDS011;34382;43.160;24.148;2022-08-25T13:46:22;19.48;;;4.45;;
48596;SDS011;34382;43.160;24.148;2022-08-25T13:47:56;13.10;;;3.25;;
48596;SDS011;34382;43.160;24.148;2022-08-25T13:49:29;14.35;;;3.85;;
48596;SDS011;34382;43.160;24.148;2022-08-25T13:51:23;15.07;;;4.07;;
48596;SDS011;34382;43.160;24.148;2022-08-25T13:53:03;17.15;;;4.38;;
48596;SDS011;34382;43.160;24.148;2022-08-25T13:54:41;12.82;;;3.42;;
48596;SDS011;34382;43.160;24.148;2022-08-25T13:56:26;16.13;;;4.63;;
48596;SDS011;34382;43.160;24.148;2022-08-25T13:58:12;16.67;;;3.95;;
48596;SDS011;34382;43.160;24.148;2022-08-25T13:59:56;16.02;;;3.80;;
48596;SDS011;34382;43.160;24.148;2022-08-25T14:01:33;16.45;;;3.60;;
48596;SDS011;34382;43.160;24.148;2022-08-25T14:03:30;12.75;;;4.22;;
48596;SDS011;34382;43.160;24.148;2022-08-25T14:05:08;14.57;;;4.45;;
48596;SDS011;34382;43.160;24.148;2022-08-25T14:06:42;16.30;;;3.42;;
48596;SDS011;34382;43.160;24.148;2022-08-25T14:08:28;14.23;;;4.10;;
48596;SDS011;34382;43.160;24.148;2022-08-25T14:13:28;16.85;;;4.38;;
48596;SDS011;34382;43.160;24.148;2022-08-25T14:15:05;15.88;;;3.35;;
48596;SDS011;34382;43.160;24.148;2022-08-25T14:18:26;23.88;;;4.30;;
48596;SDS011;34382;43.160;24.148;2022-08-25T14:20:04;9.65;;;3.33;;
48596;SDS011;34382;43.160;24.148;2022-08-25T14:21:37;19.85;;;4.80;;
48596;SDS011;34382;43.160;24.148;2022-08-25T14:23:14;13.73;;;3.58;;
48596;SDS011;34382;43.160;24.148;2022-08-25T14:24:52;11.65;;;3.53;;
48596;SDS011;34382;43.160;24.148;2022-08-25T14:27:58;15.85;;;4.50;;
48596;SDS011;34382;43.160;24.148;2022-08-25T14:29:38;14.80;;;3.92;;
48596;SDS011;34382;43.160;24.148;2022-08-25T14:33:17;21.75;;;4.50;;
48596;SDS011;34382;43.160;24.148;2022-08-25T14:34:51;13.90;;;4.53;;
48596;SDS011;34382;43.160;24.148;2022-08-25T14:36:26;16.55;;;3.92;;
48596;SDS011;34382;43.160;24.148;2022-08-25T14:38:08;15.45;;;4.00;;
48596;SDS011;34382;43.160;24.148;2022-08-25T14:39:42;17.00;;;3.40;;
48596;SDS011;34382;43.160;24.148;2022-08-25T14:41:16;18.52;;;3.60;;
48596;SDS011;34382;43.160;24.148;2022-08-25T14:44:21;17.02;;;4.22;;
48596;SDS011;34382;43.160;24.148;2022-08-25T14:45:57;11.25;;;3.47;;
48596;SDS011;34382;43.160;24.148;2022-08-25T14:47:32;16.92;;;3.72;;
48596;SDS011;34382;43.160;24.148;2022-08-25T14:49:06;21.77;;;4.32;;
48596;SDS011;34382;43.160;24.148;2022-08-25T14:50:41;20.05;;;4.20;;
48596;SDS011;34382;43.160;24.148;2022-08-25T14:52:20;11.73;;;3.67;;
48596;SDS011;34382;43.160;24.148;2022-08-25T14:53:57;15.10;;;3.63;;
48596;SDS011;34382;43.160;24.148;2022-08-25T14:55:31;21.73;;;3.95;;
48596;SDS011;34382;43.160;24.148;2022-08-25T14:57:05;12.80;;;3.65;;
48596;SDS011;34382;43.160;24.148;2022-08-25T14:58:39;14.40;;;4.15;;
48596;SDS011;34382;43.160;24.148;2022-08-25T15:00:24;16.08;;;4.13;;
48596;SDS011;34382;43.160;24.148;2022-08-25T15:01:58;22.60;;;4.68;;
48596;SDS011;34382;43.160;24.148;2022-08-25T15:03:41;16.05;;;3.80;;
48596;SDS011;34382;43.160;24.148;2022-08-25T15:05:22;12.65;;;3.22;;
48596;SDS011;34382;43.160;24.148;2022-08-25T15:06:59;16.38;;;3.92;;
48596;SDS011;34382;43.160;24.148;2022-08-25T15:08:33;14.70;;;4.15;;
48596;SDS011;34382;43.160;24.148;2022-08-25T15:10:24;13.07;;;3.85;;
48596;SDS011;34382;43.160;24.148;2022-08-25T15:11:57;14.82;;;3.83;;
48596;SDS011;34382;43.160;24.148;2022-08-25T15:13:31;16.27;;;4.28;;
48596;SDS011;34382;43.160;24.148;2022-08-25T15:15:04;14.98;;;4.25;;
48596;SDS011;34382;43.160;24.148;2022-08-25T15:16:39;21.23;;;5.43;;
48596;SDS011;34382;43.160;24.148;2022-08-25T15:18:20;16.65;;;3.58;;
48596;SDS011;34382;43.160;24.148;2022-08-25T15:19:53;17.38;;;4.47;;
48596;SDS011;34382;43.160;24.148;2022-08-25T15:21:25;16.63;;;4.18;;
48596;SDS011;34382;43.160;24.148;2022-08-25T15:22:59;19.05;;;3.80;;
48596;SDS011;34382;43.160;24.148;2022-08-25T15:26:12;16.23;;;3.75;;
48596;SDS011;34382;43.160;24.148;2022-08-25T15:27:47;13.23;;;3.70;;
48596;SDS011;34382;43.160;24.148;2022-08-25T15:29:20;18.80;;;4.43;;
48596;SDS011;34382;43.160;24.148;2022-08-25T15:30:54;17.58;;;3.95;;
48596;SDS011;34382;43.160;24.148;2022-08-25T15:32:26;13.32;;;3.83;;
48596;SDS011;34382;43.160;24.148;2022-08-25T15:33:59;18.90;;;3.80;;
48596;SDS011;34382;43.160;24.148;2022-08-25T15:35:32;21.45;;;4.43;;
48596;SDS011;34382;43.160;24.148;2022-08-25T15:40:26;13.68;;;4.15;;
48596;SDS011;34382;43.160;24.148;2022-08-25T15:41:59;17.55;;;4.05;;
48596;SDS011;34382;43.160;24.148;2022-08-25T15:43:31;13.00;;;3.88;;
48596;SDS011;34382;43.160;24.148;2022-08-25T15:45:04;17.10;;;4.50;;
48596;SDS011;34382;43.160;24.148;2022-08-25T15:46:38;13.68;;;3.72;;
48596;SDS011;34382;43.160;24.148;2022-08-25T15:48:19;14.77;;;4.00;;
48596;SDS011;34382;43.160;24.148;2022-08-25T15:49:57;21.42;;;4.72;;
48596;SDS011;34382;43.160;24.148;2022-08-25T15:51:44;16.65;;;4.28;;
48596;SDS011;34382;43.160;24.148;2022-08-25T15:54:53;32.63;;;6.20;;
48596;SDS011;34382;43.160;24.148;2022-08-25T15:56:26;16.85;;;4.82;;
48596;SDS011;34382;43.160;24.148;2022-08-25T15:59:31;17.70;;;4.50;;
48596;SDS011;34382;43.160;24.148;2022-08-25T16:04:52;22.20;;;5.38;;
48596;SDS011;34382;43.160;24.148;2022-08-25T16:06:26;21.65;;;5.57;;
48596;SDS011;34382;43.160;24.148;2022-08-25T16:07:59;16.15;;;4.38;;
48596;SDS011;34382;43.160;24.148;2022-08-25T16:14:47;27.30;;;5.38;;
48596;SDS011;34382;43.160;24.148;2022-08-25T16:16:23;24.23;;;5.65;;
48596;SDS011;34382;43.160;24.148;2022-08-25T16:21:24;15.68;;;4.57;;
48596;SDS011;34382;43.160;24.148;2022-08-25T16:23:00;17.33;;;4.35;;
48596;SDS011;34382;43.160;24.148;2022-08-25T16:24:34;15.02;;;4.47;;
48596;SDS011;34382;43.160;24.148;2022-08-25T16:26:10;16.58;;;4.38;;
48596;SDS011;34382;43.160;24.148;2022-08-25T16:27:43;15.95;;;3.85;;
48596;SDS011;34382;43.160;24.148;2022-08-25T16:29:16;19.05;;;4.45;;
48596;SDS011;34382;43.160;24.148;2022-08-25T16:30:50;12.90;;;3.92;;
48596;SDS011;34382;43.160;24.148;2022-08-25T16:32:23;17.67;;;4.57;;
48596;SDS011;34382;43.160;24.148;2022-08-25T16:33:56;16.20;;;4.20;;
48596;SDS011;34382;43.160;24.148;2022-08-25T16:35:29;13.07;;;3.90;;
48596;SDS011;34382;43.160;24.148;2022-08-25T16:37:02;12.07;;;3.85;;
48596;SDS011;34382;43.160;24.148;2022-08-25T16:38:37;13.43;;;4.10;;
48596;SDS011;34382;43.160;24.148;2022-08-25T16:40:19;20.77;;;4.72;;
48596;SDS011;34382;43.160;24.148;2022-08-25T16:41:56;18.60;;;4.53;;
48596;SDS011;34382;43.160;24.148;2022-08-25T16:43:29;15.45;;;4.25;;
48596;SDS011;34382;43.160;24.148;2022-08-25T16:46:41;13.93;;;4.10;;
48596;SDS011;34382;43.160;24.148;2022-08-25T16:48:14;14.25;;;4.47;;
48596;SDS011;34382;43.160;24.148;2022-08-25T16:49:48;16.00;;;4.10;;
48596;SDS011;34382;43.160;24.148;2022-08-25T16:51:20;14.95;;;4.47;;
48596;SDS011;34382;43.160;24.148;2022-08-25T16:53:00;16.35;;;4.30;;
48596;SDS011;34382;43.160;24.148;2022-08-25T16:54:54;14.32;;;4.20;;
48596;SDS011;34382;43.160;24.148;2022-08-25T16:56:46;14.20;;;4.25;;
48596;SDS011;34382;43.160;24.148;2022-08-25T16:58:24;14.18;;;4.47;;
48596;SDS011;34382;43.160;24.148;2022-08-25T16:59:57;13.13;;;4.07;;
48596;SDS011;34382;43.160;24.148;2022-08-25T17:01:31;11.95;;;3.70;;
48596;SDS011;34382;43.160;24.148;2022-08-25T17:03:06;14.35;;;4.47;;
48596;SDS011;34382;43.160;24.148;2022-08-25T17:04:39;15.73;;;4.07;;
48596;SDS011;34382;43.160;24.148;2022-08-25T17:06:12;12.27;;;4.10;;
48596;SDS011;34382;43.160;24.148;2022-08-25T17:07:45;12.80;;;4.28;;
48596;SDS011;34382;43.160;24.148;2022-08-25T17:09:41;16.13;;;4.97;;
48596;SDS011;34382;43.160;24.148;2022-08-25T17:11:18;18.10;;;4.65;;
48596;SDS011;34382;43.160;24.148;2022-08-25T17:12:52;11.98;;;4.00;;
48596;SDS011;34382;43.160;24.148;2022-08-25T17:14:24;15.80;;;4.70;;
48596;SDS011;34382;43.160;24.148;2022-08-25T17:15:57;13.20;;;4.23;;
48596;SDS011;34382;43.160;24.148;2022-08-25T17:17:33;14.98;;;4.38;;
48596;SDS011;34382;43.160;24.148;2022-08-25T17:19:08;14.73;;;4.90;;
48596;SDS011;34382;43.160;24.148;2022-08-25T17:20:43;12.85;;;4.43;;
48596;SDS011;34382;43.160;24.148;2022-08-25T17:22:16;16.33;;;4.75;;
48596;SDS011;34382;43.160;24.148;2022-08-25T17:23:48;13.52;;;4.05;;
48596;SDS011;34382;43.160;24.148;2022-08-25T17:25:21;13.60;;;5.05;;
48596;SDS011;34382;43.160;24.148;2022-08-25T17:26:58;13.68;;;4.38;;
48596;SDS011;34382;43.160;24.148;2022-08-25T17:28:32;14.88;;;4.22;;
48596;SDS011;34382;43.160;24.148;2022-08-25T17:30:05;12.60;;;4.03;;
48596;SDS011;34382;43.160;24.148;2022-08-25T17:31:38;13.15;;;4.15;;
48596;SDS011;34382;43.160;24.148;2022-08-25T17:33:11;17.20;;;4.93;;
48596;SDS011;34382;43.160;24.148;2022-08-25T17:34:45;15.55;;;5.03;;
48596;SDS011;34382;43.160;24.148;2022-08-25T17:36:17;15.27;;;4.20;;
48596;SDS011;34382;43.160;24.148;2022-08-25T17:37:57;14.90;;;4.50;;
48596;SDS011;34382;43.160;24.148;2022-08-25T17:39:29;14.93;;;4.97;;
48596;SDS011;34382;43.160;24.148;2022-08-25T17:41:04;16.38;;;4.75;;
48596;SDS011;34382;43.160;24.148;2022-08-25T17:42:38;17.40;;;4.60;;
48596;SDS011;34382;43.160;24.148;2022-08-25T17:44:11;15.60;;;4.45;;
48596;SDS011;34382;43.160;24.148;2022-08-25T17:45:46;17.02;;;4.30;;
48596;SDS011;34382;43.160;24.148;2022-08-25T17:47:19;15.32;;;4.40;;
48596;SDS011;34382;43.160;24.148;2022-08-25T17:48:51;14.40;;;4.75;;
48596;SDS011;34382;43.160;24.148;2022-08-25T17:50:24;16.40;;;4.50;;
48596;SDS011;34382;43.160;24.148;2022-08-25T17:53:30;13.77;;;4.40;;
48596;SDS011;34382;43.160;24.148;2022-08-25T17:55:02;13.10;;;3.85;;
48596;SDS011;34382;43.160;24.148;2022-08-25T17:56:39;13.60;;;4.75;;
48596;SDS011;34382;43.160;24.148;2022-08-25T18:01:41;15.23;;;4.25;;
48596;SDS011;34382;43.160;24.148;2022-08-25T18:03:13;14.27;;;4.43;;
48596;SDS011;34382;43.160;24.148;2022-08-25T18:04:46;15.40;;;4.03;;
48596;SDS011;34382;43.160;24.148;2022-08-25T18:06:18;17.63;;;4.82;;
48596;SDS011;34382;43.160;24.148;2022-08-25T18:07:51;17.02;;;4.93;;
48596;SDS011;34382;43.160;24.148;2022-08-25T18:09:24;12.02;;;4.32;;
48596;SDS011;34382;43.160;24.148;2022-08-25T18:10:57;17.40;;;5.05;;
48596;SDS011;34382;43.160;24.148;2022-08-25T18:12:29;15.45;;;4.88;;
48596;SDS011;34382;43.160;24.148;2022-08-25T18:14:02;15.00;;;4.22;;
48596;SDS011;34382;43.160;24.148;2022-08-25T18:15:37;14.38;;;4.40;;
48596;SDS011;34382;43.160;24.148;2022-08-25T18:17:12;13.82;;;3.97;;
48596;SDS011;34382;43.160;24.148;2022-08-25T18:18:52;15.50;;;4.50;;
48596;SDS011;34382;43.160;24.148;2022-08-25T18:20:27;14.07;;;4.90;;
48596;SDS011;34382;43.160;24.148;2022-08-25T18:22:00;14.43;;;4.03;;
48596;SDS011;34382;43.160;24.148;2022-08-25T18:23:34;14.38;;;4.55;;
48596;SDS011;34382;43.160;24.148;2022-08-25T18:26:41;18.17;;;4.70;;
48596;SDS011;34382;43.160;24.148;2022-08-25T18:28:14;14.00;;;3.90;;
48596;SDS011;34382;43.160;24.148;2022-08-25T18:32:56;12.90;;;4.10;;
48596;SDS011;34382;43.160;24.148;2022-08-25T18:34:30;16.75;;;4.70;;
48596;SDS011;34382;43.160;24.148;2022-08-25T18:36:06;17.30;;;4.40;;
48596;SDS011;34382;43.160;24.148;2022-08-25T18:37:39;11.00;;;4.05;;
48596;SDS011;34382;43.160;24.148;2022-08-25T18:39:30;11.48;;;3.85;;
48596;SDS011;34382;43.160;24.148;2022-08-25T18:41:21;10.27;;;3.70;;
48596;SDS011;34382;43.160;24.148;2022-08-25T18:42:57;13.80;;;4.40;;
48596;SDS011;34382;43.160;24.148;2022-08-25T18:44:34;14.32;;;4.95;;
48596;SDS011;34382;43.160;24.148;2022-08-25T18:46:06;10.70;;;3.80;;
48596;SDS011;34382;43.160;24.148;2022-08-25T18:47:40;15.15;;;4.43;;
48596;SDS011;34382;43.160;24.148;2022-08-25T18:49:12;13.48;;;4.85;;
48596;SDS011;34382;43.160;24.148;2022-08-25T18:50:46;12.93;;;4.57;;
48596;SDS011;34382;43.160;24.148;2022-08-25T18:52:22;12.20;;;4.40;;
48596;SDS011;34382;43.160;24.148;2022-08-25T18:53:54;11.85;;;4.53;;
48596;SDS011;34382;43.160;24.148;2022-08-25T18:55:31;17.83;;;5.55;;
48596;SDS011;34382;43.160;24.148;2022-08-25T18:57:04;13.73;;;4.45;;
48596;SDS011;34382;43.160;24.148;2022-08-25T18:58:39;15.38;;;4.15;;
48596;SDS011;34382;43.160;24.148;2022-08-25T19:00:12;18.17;;;4.60;;
48596;SDS011;34382;43.160;24.148;2022-08-25T19:01:47;14.93;;;4.70;;
48596;SDS011;34382;43.160;24.148;2022-08-25T19:03:20;11.07;;;3.88;;
48596;SDS011;34382;43.160;24.148;2022-08-25T19:04:54;14.52;;;4.88;;
48596;SDS011;34382;43.160;24.148;2022-08-25T19:06:26;15.97;;;4.50;;
48596;SDS011;34382;43.160;24.148;2022-08-25T19:08:04;11.25;;;4.32;;
48596;SDS011;34382;43.160;24.148;2022-08-25T19:09:38;14.48;;;4.70;;
48596;SDS011;34382;43.160;24.148;2022-08-25T19:11:10;15.57;;;4.78;;
48596;SDS011;34382;43.160;24.148;2022-08-25T19:12:43;12.52;;;4.68;;
48596;SDS011;34382;43.160;24.148;2022-08-25T19:14:20;15.70;;;4.90;;
48596;SDS011;34382;43.160;24.148;2022-08-25T19:15:56;13.68;;;4.93;;
48596;SDS011;34382;43.160;24.148;2022-08-25T19:17:29;14.73;;;5.32;;
48596;SDS011;34382;43.160;24.148;2022-08-25T19:19:09;12.65;;;5.00;;
48596;SDS011;34382;43.160;24.148;2022-08-25T19:20:45;14.90;;;5.70;;
48596;SDS011;34382;43.160;24.148;2022-08-25T19:22:17;15.70;;;4.68;;